Terminal Aerodrome Forecast
Issued by NWS Upton, NY

Home | Current Version | Previous Version | Text Only | Print | Product List | Glossary On
Versions: 1 2 3 4 5 6 7 8 9 10 11 12 13 14 15 16 17 18 19 20 21 22 23 24 25 26 27 28 29
000
FTUS41 KOKX 222000 AAA
TAFISP
TAF AMD
KISP 222030Z 2221/2318 07010KT P6SM BKN010 OVC020
     FM230000 08011KT 5SM -RA BR BKN008 OVC010
     FM230200 09011KT 3SM -RA BR OVC005
     FM231300 07011KT 2SM -DZ BR OVC005=

USA.gov is the U.S. government's official web portal to all federal, state and local government web resources and services.